Time;durP1;ratioP1;P1;durP2;ratioP2;P2;SDS_P1;SDS_P2;PMS_P1;PMS_P2;Temp;Humidity;BMP_temperature;BMP_pressure;BME280_temperature;BME280_humidity;BME280_pressure;Samples;Min_cycle;Max_cycle;Signal;HPM_P1;HPM_P2
2024/03/05 00:00:10;;;;;;;24.13;21.63;;;9.20;1.00;;;;;;5092250;28;20461;-76
2024/03/05 00:02:40;;;;;;;24.33;21.70;;;9.20;1.00;;;;;;5090569;28;20509;-76
2024/03/05 00:05:08;;;;;;;25.00;22.37;;;9.10;1.00;;;;;;5113792;27;20493;-76
2024/03/05 00:07:36;;;;;;;22.90;20.50;;;9.10;1.00;;;;;;5090745;27;20440;-75
2024/03/05 00:10:03;;;;;;;22.77;20.37;;;9.00;1.00;;;;;;5092002;28;20602;-77
2024/03/05 00:12:33;;;;;;;27.27;22.23;;;8.90;1.00;;;;;;5096815;28;20481;-76
2024/03/05 00:15:00;;;;;;;23.37;20.60;;;8.80;1.00;;;;;;5115190;27;20584;-77
2024/03/05 00:17:27;;;;;;;24.80;20.10;;;8.80;1.00;;;;;;5109867;27;20515;-76
2024/03/05 00:19:56;;;;;;;24.33;21.73;;;8.80;1.00;;;;;;5112739;27;20553;-77
2024/03/05 00:22:25;;;;;;;22.20;19.90;;;8.70;1.00;;;;;;5109976;27;20466;-76
2024/03/05 00:24:55;;;;;;;22.83;20.20;;;8.70;1.00;;;;;;5104882;27;20490;-75
2024/03/05 00:27:22;;;;;;;24.43;21.60;;;8.70;1.00;;;;;;5100752;28;20456;-77
2024/03/05 00:29:49;;;;;;;23.73;20.60;;;8.60;1.00;;;;;;5095375;28;21055;-76
2024/03/05 00:32:17;;;;;;;22.67;20.33;;;8.70;1.00;;;;;;5100421;27;20498;-75
2024/03/05 00:34:44;;;;;;;24.13;20.43;;;8.70;1.00;;;;;;5092821;27;20474;-75
2024/03/05 00:37:12;;;;;;;23.40;19.33;;;8.70;1.00;;;;;;5094405;28;20570;-76
2024/03/05 00:39:39;;;;;;;23.77;19.27;;;8.70;1.00;;;;;;5110173;28;20548;-76
2024/03/05 00:42:06;;;;;;;20.53;17.87;;;8.70;1.00;;;;;;5093305;28;20473;-77
2024/03/05 00:44:33;;;;;;;22.70;20.27;;;8.70;1.00;;;;;;5093146;28;20491;-76
2024/03/05 00:47:00;;;;;;;21.83;18.67;;;8.70;1.00;;;;;;5093274;28;20454;-73
2024/03/05 00:49:28;;;;;;;22.37;19.37;;;8.70;1.00;;;;;;5110013;27;20504;-73
2024/03/05 00:51:56;;;;;;;22.00;19.50;;;8.70;1.00;;;;;;5113689;27;21035;-73
2024/03/05 00:54:24;;;;;;;22.70;19.13;;;8.70;1.00;;;;;;5099963;27;20559;-73
2024/03/05 00:56:51;;;;;;;21.40;19.17;;;8.60;1.00;;;;;;5093354;28;20443;-73
2024/03/05 00:59:18;;;;;;;19.10;16.80;;;8.50;1.00;;;;;;5088459;28;20994;-74
2024/03/05 01:01:45;;;;;;;21.57;18.87;;;8.50;1.00;;;;;;5092955;28;20451;-74
2024/03/05 01:04:13;;;;;;;20.83;17.47;;;8.50;1.00;;;;;;5103030;27;20466;-74
2024/03/05 01:06:43;;;;;;;23.17;17.63;;;8.50;1.00;;;;;;5089672;28;20497;-73
2024/03/05 01:09:14;;;;;;;20.27;17.30;;;8.30;1.00;;;;;;5101586;27;20461;-74
2024/03/05 01:11:42;;;;;;;21.93;18.67;;;8.30;1.00;;;;;;5091569;28;20477;-75
2024/03/05 01:14:09;;;;;;;21.00;18.80;;;8.20;1.00;;;;;;5090009;28;20592;-73
2024/03/05 01:16:37;;;;;;;19.97;17.90;;;8.30;1.00;;;;;;5106049;27;20500;-75
2024/03/05 01:19:04;;;;;;;21.57;17.63;;;8.20;1.00;;;;;;5100576;27;20475;-73
2024/03/05 01:21:31;;;;;;;22.37;19.03;;;8.20;1.00;;;;;;5100655;27;21153;-73
2024/03/05 01:23:58;;;;;;;24.27;18.97;;;8.20;1.00;;;;;;5090568;28;20930;-74
2024/03/05 01:26:25;;;;;;;22.17;19.27;;;8.10;1.00;;;;;;5090203;28;20965;-74
2024/03/05 01:28:55;;;;;;;20.23;18.10;;;8.10;1.00;;;;;;5091261;28;20457;-74
2024/03/05 01:31:22;;;;;;;25.70;19.63;;;8.20;1.00;;;;;;5089128;28;20447;-73
2024/03/05 01:33:50;;;;;;;23.67;18.67;;;8.20;1.00;;;;;;5090049;28;20512;-73
2024/03/05 01:36:19;;;;;;;21.87;18.87;;;8.10;1.00;;;;;;5089017;28;20459;-74
2024/03/05 01:38:48;;;;;;;23.00;18.90;;;8.20;1.00;;;;;;5089360;28;20458;-73
2024/03/05 01:41:15;;;;;;;21.00;18.83;;;8.10;1.00;;;;;;5090010;28;20551;-73
2024/03/05 01:43:42;;;;;;;19.97;18.03;;;8.10;1.00;;;;;;5089837;28;20481;-73
2024/03/05 01:46:13;;;;;;;22.80;20.30;;;8.10;1.00;;;;;;5092196;28;20491;-74
2024/03/05 01:48:43;;;;;;;20.40;18.00;;;8.00;1.00;;;;;;5106821;27;20981;-73
2024/03/05 01:51:11;;;;;;;22.30;20.00;;;7.90;1.00;;;;;;5093037;28;20449;-75
2024/03/05 01:53:39;;;;;;;22.70;20.27;;;7.90;1.00;;;;;;5090809;28;20499;-72
2024/03/05 01:56:07;;;;;;;21.77;19.37;;;7.80;1.00;;;;;;5091413;28;20481;-73
2024/03/05 01:58:34;;;;;;;22.17;19.47;;;7.70;1.00;;;;;;5090515;28;20536;-76
2024/03/05 02:01:06;;;;;;;26.57;20.07;;;7.70;1.00;;;;;;5093301;28;20533;-75
2024/03/05 02:03:35;;;;;;;21.60;19.30;;;7.70;1.00;;;;;;5114303;27;20689;-74
2024/03/05 02:06:04;;;;;;;22.50;19.17;;;7.70;1.00;;;;;;5113178;27;20543;-75
2024/03/05 02:08:30;;;;;;;24.00;20.43;;;7.70;1.00;;;;;;5111964;27;22219;-76
2024/03/05 02:10:58;;;;;;;22.87;19.70;;;7.70;1.00;;;;;;5115055;27;20496;-76
2024/03/05 02:13:25;;;;;;;23.03;19.80;;;7.70;1.00;;;;;;5117257;27;20500;-77
2024/03/05 02:15:52;;;;;;;23.95;20.23;;;7.60;1.00;;;;;;5115298;27;20464;-76
2024/03/05 02:18:19;;;;;;;23.33;19.23;;;7.60;1.00;;;;;;5113195;27;20266;-76
2024/03/05 02:20:48;;;;;;;22.27;19.27;;;7.60;1.00;;;;;;5098124;27;20457;-75
2024/03/05 02:23:16;;;;;;;22.47;20.13;;;7.60;1.00;;;;;;5115081;27;20262;-75
2024/03/05 02:25:44;;;;;;;23.07;20.47;;;7.60;1.00;;;;;;5114204;27;20461;-75
2024/03/05 02:28:11;;;;;;;22.70;19.37;;;7.60;1.00;;;;;;5113706;27;20495;-75
2024/03/05 02:30:40;;;;;;;23.07;20.07;;;7.50;1.00;;;;;;5088233;28;20464;-75
2024/03/05 02:33:08;;;;;;;23.60;20.70;;;7.40;1.00;;;;;;5088326;28;20479;-76
2024/03/05 02:35:35;;;;;;;25.07;21.27;;;7.40;1.00;;;;;;5090980;28;21079;-75
2024/03/05 02:38:05;;;;;;;22.10;19.80;;;7.30;1.00;;;;;;5090060;28;20546;-76
2024/03/05 02:40:34;;;;;;;21.80;19.67;;;7.30;1.00;;;;;;5075948;28;20475;-75
2024/03/05 02:43:01;;;;;;;24.00;20.47;;;7.20;1.00;;;;;;5090003;28;20564;-76
2024/03/05 02:45:28;;;;;;;27.37;18.67;;;7.00;1.00;;;;;;5100180;27;20498;-75
2024/03/05 02:47:56;;;;;;;23.63;20.17;;;7.00;1.00;;;;;;5111722;27;21016;-76
2024/03/05 02:50:23;;;;;;;21.63;19.15;;;6.90;1.00;;;;;;5110253;27;20428;-76
2024/03/05 02:52:50;;;;;;;24.85;21.08;;;6.80;1.00;;;;;;5109191;27;20369;-75
2024/03/05 02:55:16;;;;;;;22.85;19.40;;;6.70;1.00;;;;;;5109547;27;20334;-76
2024/03/05 02:57:46;;;;;;;23.60;19.85;;;6.60;1.00;;;;;;5110847;27;20235;-76
2024/03/05 03:00:20;;;;;;;28.20;20.33;;;6.50;1.00;;;;;;5108779;27;20244;-76
2024/03/05 03:02:49;;;;;;;23.13;20.52;;;6.40;1.00;;;;;;5109377;27;20465;-75
2024/03/05 03:05:17;;;;;;;27.08;20.40;;;6.30;1.00;;;;;;5108991;27;20258;-76
2024/03/05 03:07:44;;;;;;;26.20;21.48;;;6.20;1.00;;;;;;5109595;27;20232;-73
2024/03/05 03:10:12;;;;;;;22.63;20.13;;;6.20;1.00;;;;;;5107791;27;20326;-72
2024/03/05 03:12:39;;;;;;;28.13;21.33;;;6.10;1.00;;;;;;5105651;27;20267;-73
2024/03/05 03:15:09;;;;;;;23.23;19.92;;;6.10;1.00;;;;;;5108468;27;20324;-73
2024/03/05 03:17:38;;;;;;;26.90;21.98;;;6.10;1.00;;;;;;5108239;27;20264;-75
2024/03/05 03:20:10;;;;;;;24.73;21.23;;;6.10;1.00;;;;;;5110121;27;21105;-76
2024/03/05 03:22:37;;;;;;;22.67;19.52;;;6.10;1.00;;;;;;5108382;27;20235;-74
2024/03/05 03:25:04;;;;;;;24.50;20.63;;;6.20;1.00;;;;;;5085839;28;20305;-72
2024/03/05 03:27:31;;;;;;;23.13;20.60;;;6.20;1.00;;;;;;5093446;27;20243;-75
2024/03/05 03:29:58;;;;;;;24.57;19.87;;;6.20;1.00;;;;;;5096863;27;20457;-73
2024/03/05 03:32:26;;;;;;;24.35;19.30;;;6.30;1.00;;;;;;5087976;28;20596;-74
2024/03/05 03:34:54;;;;;;;25.83;21.20;;;6.30;1.00;;;;;;5087084;28;20782;-72
2024/03/05 03:37:21;;;;;;;20.95;18.45;;;6.30;1.00;;;;;;5081757;28;20747;-73
2024/03/05 03:39:48;;;;;;;25.20;18.58;;;6.30;1.00;;;;;;5085872;28;20242;-73
2024/03/05 03:42:17;;;;;;;23.63;19.58;;;6.20;1.00;;;;;;5087819;28;20937;-75
2024/03/05 03:44:45;;;;;;;23.95;19.92;;;6.20;1.00;;;;;;5086777;28;20260;-72
2024/03/05 03:47:12;;;;;;;21.15;19.05;;;6.20;1.00;;;;;;5091402;28;20299;-73
2024/03/05 03:49:47;;;;;;;22.90;19.10;;;6.20;1.00;;;;;;5090914;28;20237;-73
2024/03/05 03:52:15;;;;;;;22.73;19.48;;;6.20;1.00;;;;;;5090258;28;20482;-74
2024/03/05 03:54:43;;;;;;;22.55;18.42;;;6.10;1.00;;;;;;5089236;28;20286;-72
2024/03/05 03:57:11;;;;;;;21.70;18.90;;;6.10;1.00;;;;;;5091468;28;20402;-73
2024/03/05 03:59:39;;;;;;;24.58;20.23;;;6.10;1.00;;;;;;5091676;28;20331;-73
2024/03/05 04:02:06;;;;;;;22.95;18.40;;;6.00;1.00;;;;;;5089594;28;20241;-73
2024/03/05 04:04:33;;;;;;;23.88;19.50;;;6.00;1.00;;;;;;5091650;28;20241;-73
2024/03/05 04:07:01;;;;;;;21.33;19.02;;;6.00;1.00;;;;;;5090432;28;20296;-72
2024/03/05 04:09:28;;;;;;;20.98;18.75;;;5.90;1.00;;;;;;5100805;27;20335;-75
2024/03/05 04:11:55;;;;;;;19.17;17.17;;;5.90;1.00;;;;;;5086887;28;20721;-73
2024/03/05 04:14:22;;;;;;;19.42;16.77;;;5.80;1.00;;;;;;5090283;28;20400;-73
2024/03/05 04:16:49;;;;;;;23.05;18.38;;;5.70;1.00;;;;;;5088382;28;20341;-71
2024/03/05 04:19:17;;;;;;;20.33;18.20;;;5.70;1.00;;;;;;5093684;28;20283;-76
2024/03/05 04:21:44;;;;;;;20.45;18.23;;;5.60;1.00;;;;;;5099871;28;20240;-79
2024/03/05 04:24:14;;;;;;;20.35;17.65;;;5.60;1.00;;;;;;5103502;27;20286;-75
2024/03/05 04:26:41;;;;;;;23.88;18.20;;;5.70;1.00;;;;;;5110237;27;20328;-77
2024/03/05 04:29:09;;;;;;;23.88;18.98;;;5.70;1.00;;;;;;5100334;27;20748;-75
2024/03/05 04:31:37;;;;;;;24.92;21.73;;;5.60;1.00;;;;;;5095309;28;20247;-77
2024/03/05 04:34:05;;;;;;;23.88;19.02;;;5.60;1.00;;;;;;5091982;28;20248;-77
2024/03/05 04:36:33;;;;;;;23.70;19.30;;;5.60;1.00;;;;;;5096450;27;20241;-76
2024/03/05 04:39:00;;;;;;;24.90;18.15;;;5.50;1.00;;;;;;5107258;27;20233;-76
2024/03/05 04:41:29;;;;;;;20.63;18.40;;;5.60;1.00;;;;;;5101402;27;21055;-74
2024/03/05 04:43:56;;;;;;;22.90;17.83;;;5.50;1.00;;;;;;5111491;27;20265;-76
2024/03/05 04:46:24;;;;;;;26.42;18.25;;;5.50;1.00;;;;;;5107002;27;21153;-75
2024/03/05 04:48:52;;;;;;;22.10;17.98;;;5.50;1.00;;;;;;5079181;28;20229;-76
2024/03/05 04:51:19;;;;;;;21.23;17.98;;;5.50;1.00;;;;;;5092257;28;20242;-76
2024/03/05 04:53:47;;;;;;;22.30;18.05;;;5.50;1.00;;;;;;5094571;28;20295;-75
2024/03/05 04:56:14;;;;;;;22.52;17.92;;;5.50;1.00;;;;;;5092364;28;20271;-76
2024/03/05 04:58:42;;;;;;;21.52;17.08;;;5.40;1.00;;;;;;5093880;28;20237;-73
2024/03/05 05:01:09;;;;;;;24.90;17.95;;;5.30;1.00;;;;;;5103778;27;20241;-76
2024/03/05 05:03:36;;;;;;;20.27;17.35;;;5.30;1.00;;;;;;5092145;28;20235;-76
2024/03/05 05:06:03;;;;;;;25.38;18.85;;;5.20;1.00;;;;;;5094213;27;20242;-76
2024/03/05 05:08:32;;;;;;;27.63;18.55;;;5.20;1.00;;;;;;5113543;27;20314;-76
2024/03/05 05:10:59;;;;;;;20.73;18.15;;;5.10;1.00;;;;;;5112330;27;20960;-76
2024/03/05 05:13:26;;;;;;;24.42;18.33;;;5.10;1.00;;;;;;5104425;27;21135;-77
2024/03/05 05:15:58;;;;;;;19.40;17.40;;;5.00;1.00;;;;;;5117847;27;20703;-76
2024/03/05 05:18:25;;;;;;;20.20;17.10;;;5.00;1.00;;;;;;5112250;27;20232;-76
2024/03/05 05:20:52;;;;;;;23.92;18.63;;;4.90;1.00;;;;;;5116264;27;20235;-80
2024/03/05 05:23:19;;;;;;;22.50;17.25;;;4.90;1.00;;;;;;5102729;27;20250;-77
2024/03/05 05:25:46;;;;;;;24.63;18.15;;;4.80;1.00;;;;;;5097295;28;20260;-77
2024/03/05 05:28:14;;;;;;;30.33;19.75;;;4.80;1.00;;;;;;5093120;28;20237;-74
2024/03/05 05:30:41;;;;;;;27.15;18.45;;;4.80;1.00;;;;;;5083480;28;20247;-71
2024/03/05 05:33:10;;;;;;;22.70;17.90;;;4.80;1.00;;;;;;5109828;27;21120;-72
2024/03/05 05:35:37;;;;;;;22.25;18.35;;;4.70;1.00;;;;;;5113332;27;20722;-72
2024/03/05 05:38:05;;;;;;;21.63;17.80;;;4.70;1.00;;;;;;5095720;28;20319;-71
2024/03/05 05:40:32;;;;;;;20.20;18.13;;;4.60;1.00;;;;;;5105209;27;20247;-72
2024/03/05 05:42:59;;;;;;;21.05;18.15;;;4.60;1.00;;;;;;5106306;27;20266;-74
2024/03/05 05:45:26;;;;;;;23.42;17.67;;;4.50;1.00;;;;;;5105737;27;20723;-72
2024/03/05 05:47:57;;;;;;;20.90;17.23;;;4.50;1.00;;;;;;5107048;27;20231;-71
2024/03/05 05:50:28;;;;;;;25.92;18.67;;;4.50;1.00;;;;;;5108969;27;20241;-75
2024/03/05 05:52:56;;;;;;;24.50;19.08;;;4.50;1.00;;;;;;5104825;27;20240;-72
2024/03/05 05:55:24;;;;;;;21.65;18.02;;;4.50;1.00;;;;;;5087039;28;20240;-73
2024/03/05 05:57:52;;;;;;;22.83;18.30;;;4.50;1.00;;;;;;5089847;28;20236;-73
2024/03/05 06:00:24;;;;;;;21.73;19.10;;;4.50;1.00;;;;;;5086592;28;20271;-74
2024/03/05 06:02:53;;;;;;;29.40;22.35;;;4.50;1.00;;;;;;5089978;28;20239;-73
2024/03/05 06:05:23;;;;;;;21.77;18.83;;;4.50;1.00;;;;;;5087759;28;20271;-75
2024/03/05 06:07:52;;;;;;;22.35;18.45;;;4.50;1.00;;;;;;5080829;28;20237;-73
2024/03/05 06:10:22;;;;;;;21.13;18.92;;;4.60;1.00;;;;;;5107235;27;20250;-75
2024/03/05 06:12:49;;;;;;;27.27;19.67;;;4.60;1.00;;;;;;5106054;27;20742;-73
2024/03/05 06:15:18;;;;;;;22.55;18.15;;;4.60;1.00;;;;;;5087893;28;20267;-74
2024/03/05 06:17:45;;;;;;;26.33;18.58;;;4.60;1.00;;;;;;5090079;27;20236;-75
2024/03/05 06:20:14;;;;;;;27.08;18.17;;;4.70;1.00;;;;;;5109768;27;20323;-73
2024/03/05 06:22:42;;;;;;;24.88;17.55;;;4.60;1.00;;;;;;5088899;28;20244;-73
2024/03/05 06:25:13;;;;;;;22.90;18.02;;;4.60;1.00;;;;;;5089852;28;20240;-73
2024/03/05 06:27:41;;;;;;;20.35;17.63;;;4.60;1.00;;;;;;5092139;28;20283;-75
2024/03/05 06:30:15;;;;;;;27.88;18.85;;;4.70;1.00;;;;;;5098116;27;21061;-72
2024/03/05 06:32:43;;;;;;;20.77;18.00;;;4.80;1.00;;;;;;5086884;28;21005;-71
2024/03/05 06:35:11;;;;;;;25.75;19.00;;;4.80;1.00;;;;;;5087245;28;20695;-72
2024/03/05 06:37:40;;;;;;;22.42;18.65;;;4.90;1.00;;;;;;5095254;27;20950;-73
2024/03/05 06:40:10;;;;;;;18.63;16.60;;;4.90;1.00;;;;;;5102692;27;20245;-71
2024/03/05 06:42:39;;;;;;;20.50;18.25;;;5.00;1.00;;;;;;5085671;28;21011;-72
2024/03/05 06:45:07;;;;;;;19.70;17.65;;;5.00;1.00;;;;;;5089592;28;20244;-71
2024/03/05 06:47:44;;;;;;;24.80;17.83;;;5.10;1.00;;;;;;5087377;28;20318;-72
2024/03/05 06:50:19;;;;;;;22.42;16.08;;;5.10;1.00;;;;;;5090350;27;20228;-73
2024/03/05 06:58:17;;;;;;;20.30;16.10;;;5.10;1.00;;;;;;5088837;28;20233;-74
2024/03/05 07:00:44;;;;;;;23.52;18.17;;;5.00;1.00;;;;;;5094609;28;21021;-73
2024/03/05 07:03:12;;;;;;;19.92;16.80;;;5.10;1.00;;;;;;5092162;27;20753;-72
2024/03/05 07:05:39;;;;;;;25.33;17.60;;;5.10;1.00;;;;;;5090010;27;20231;-73
2024/03/05 07:08:08;;;;;;;24.42;19.23;;;5.20;1.00;;;;;;5089439;28;20260;-72
2024/03/05 07:10:35;;;;;;;21.52;15.98;;;5.30;1.00;;;;;;5083639;28;20240;-73
2024/03/05 07:13:03;;;;;;;20.65;16.67;;;5.30;1.00;;;;;;5086677;27;20241;-73
2024/03/05 07:15:31;;;;;;;22.27;17.48;;;5.40;1.00;;;;;;5086218;27;20265;-73
2024/03/05 07:18:01;;;;;;;23.33;18.23;;;5.50;1.00;;;;;;5090091;28;20933;-76
2024/03/05 07:20:29;;;;;;;23.55;17.25;;;5.50;1.00;;;;;;5090600;28;21018;-74
2024/03/05 07:22:57;;;;;;;21.02;17.95;;;5.60;1.00;;;;;;5089533;28;20289;-75
2024/03/05 07:25:25;;;;;;;20.17;17.90;;;5.70;1.00;;;;;;5088719;28;20299;-76
2024/03/05 07:27:53;;;;;;;20.95;16.83;;;5.70;1.00;;;;;;5101469;27;20237;-77
2024/03/05 07:30:21;;;;;;;20.90;16.48;;;5.80;1.00;;;;;;5093471;28;20247;-74
2024/03/05 07:32:50;;;;;;;23.73;16.85;;;5.70;1.00;;;;;;5091754;28;20282;-73
2024/03/05 07:35:19;;;;;;;21.38;17.05;;;5.70;1.00;;;;;;5086956;28;20240;-73
2024/03/05 07:37:46;;;;;;;18.75;15.68;;;5.80;1.00;;;;;;5084786;28;20253;-72
2024/03/05 07:40:17;;;;;;;20.95;16.38;;;5.90;1.00;;;;;;5088071;28;20330;-73
2024/03/05 07:42:48;;;;;;;20.98;16.85;;;5.90;1.00;;;;;;5088358;28;20321;-73
2024/03/05 07:45:16;;;;;;;25.88;17.35;;;6.00;1.00;;;;;;5088425;28;20790;-73
2024/03/05 07:47:43;;;;;;;19.08;16.05;;;6.00;1.00;;;;;;5094526;27;20345;-72
2024/03/05 07:50:13;;;;;;;20.52;16.33;;;6.10;1.00;;;;;;5116771;27;20290;-73
2024/03/05 07:52:40;;;;;;;20.70;16.38;;;6.10;1.00;;;;;;5110024;27;20955;-71
2024/03/05 07:55:10;;;;;;;24.02;17.00;;;6.10;1.00;;;;;;5112342;27;20242;-72
2024/03/05 07:57:38;;;;;;;22.50;16.33;;;6.10;1.00;;;;;;5113202;27;20239;-71
2024/03/05 08:00:09;;;;;;;19.05;16.70;;;6.30;1.00;;;;;;5110544;27;20239;-73
2024/03/05 08:02:38;;;;;;;20.02;17.40;;;6.40;1.00;;;;;;5111763;27;20357;-74
2024/03/05 08:05:05;;;;;;;21.92;16.50;;;6.40;1.00;;;;;;5106705;27;20323;-72
2024/03/05 08:07:35;;;;;;;17.95;15.52;;;6.40;1.00;;;;;;5109913;27;20319;-73
2024/03/05 08:10:06;;;;;;;18.73;16.75;;;6.40;1.00;;;;;;5114741;27;20232;-73
2024/03/05 08:12:34;;;;;;;21.75;16.27;;;6.50;1.00;;;;;;5102005;27;20252;-72
2024/03/05 08:15:03;;;;;;;19.13;15.47;;;6.60;1.00;;;;;;5112845;27;20447;-71
2024/03/05 08:17:33;;;;;;;25.27;18.20;;;6.70;1.00;;;;;;5108538;27;20545;-72
2024/03/05 08:20:00;;;;;;;19.67;16.88;;;6.80;1.00;;;;;;5107739;27;20460;-73
2024/03/05 08:22:27;;;;;;;21.73;17.97;;;6.80;1.00;;;;;;5111426;27;20244;-71
2024/03/05 08:24:56;;;;;;;24.33;17.27;;;6.90;1.00;;;;;;5111879;27;20476;-72
2024/03/05 08:27:23;;;;;;;25.07;17.17;;;7.10;1.00;;;;;;5095664;27;20512;-75
2024/03/05 08:29:51;;;;;;;18.50;16.47;;;7.20;1.00;;;;;;5106971;27;20983;-72
2024/03/05 08:32:18;;;;;;;20.87;15.43;;;7.30;1.00;;;;;;5112750;27;21240;-77
2024/03/05 08:34:45;;;;;;;20.58;16.67;;;7.30;1.00;;;;;;5097353;27;20497;-76
2024/03/05 08:37:15;;;;;;;22.20;16.90;;;7.40;1.00;;;;;;5103439;27;20235;-77
2024/03/05 08:39:43;;;;;;;23.97;16.67;;;7.50;1.00;;;;;;5087040;28;20547;-75
2024/03/05 08:42:11;;;;;;;20.67;16.87;;;7.60;1.00;;;;;;5105011;27;20480;-73
2024/03/05 08:44:39;;;;;;;27.00;16.70;;;7.60;1.00;;;;;;5102451;27;20571;-77
2024/03/05 08:47:07;;;;;;;20.83;16.53;;;7.60;1.00;;;;;;5092791;27;20430;-77
2024/03/05 08:49:34;;;;;;;18.30;16.00;;;7.80;1.00;;;;;;5103399;27;20482;-75
2024/03/05 08:52:04;;;;;;;17.90;15.97;;;7.90;1.00;;;;;;5099133;27;20548;-73
2024/03/05 08:54:32;;;;;;;19.20;16.80;;;8.00;1.00;;;;;;5091464;27;20500;-75
2024/03/05 08:57:00;;;;;;;19.50;16.97;;;8.40;1.00;;;;;;5090888;28;20477;-76
2024/03/05 08:59:28;;;;;;;17.33;15.53;;;8.90;1.00;;;;;;5104067;27;20433;-79
2024/03/05 09:01:55;;;;;;;23.77;17.03;;;9.00;1.00;;;;;;5105994;27;20463;-78
2024/03/05 09:04:23;;;;;;;28.13;19.10;;;9.00;1.00;;;;;;5100952;28;20490;-79
2024/03/05 09:06:50;;;;;;;17.10;15.40;;;9.20;1.00;;;;;;5104004;27;20478;-80
2024/03/05 09:09:20;;;;;;;25.87;18.17;;;9.30;1.00;;;;;;5113007;27;20584;-80
2024/03/05 09:11:50;;;;;;;24.63;17.63;;;9.90;1.00;;;;;;5118215;27;20442;-77
2024/03/05 09:14:17;;;;;;;21.47;16.53;;;10.60;1.00;;;;;;5112185;27;20580;-80
2024/03/05 09:16:48;;;;;;;18.63;14.67;;;11.70;1.00;;;;;;5116090;27;20549;-78
2024/03/05 09:19:20;;;;;;;19.33;15.47;;;12.50;1.00;;;;;;5110138;27;21392;-81
2024/03/05 09:21:47;;;;;;;23.00;16.67;;;13.40;1.00;;;;;;5093103;27;20524;-80
2024/03/05 09:24:15;;;;;;;18.83;15.13;;;14.50;1.00;;;;;;5105836;27;20465;-80
2024/03/05 09:26:42;;;;;;;15.60;14.00;;;15.20;1.00;;;;;;5092584;28;20936;-78
2024/03/05 09:29:09;;;;;;;16.10;14.40;;;15.30;1.00;;;;;;5094262;28;20413;-81
2024/03/05 09:31:36;;;;;;;18.27;14.07;;;15.30;1.00;;;;;;5090626;28;21201;-81
2024/03/05 09:34:09;;;;;;;21.13;15.20;;;16.10;1.00;;;;;;5093637;28;20487;-81
2024/03/05 09:36:39;;;;;;;16.50;13.37;;;16.30;1.00;;;;;;5088356;28;20579;-76
2024/03/05 09:39:09;;;;;;;16.23;13.90;;;16.40;1.00;;;;;;5085401;28;20523;-79
2024/03/05 09:41:42;;;;;;;19.83;14.70;;;16.40;1.00;;;;;;5077747;28;20526;-77
2024/03/05 09:44:13;;;;;;;14.47;13.10;;;16.80;1.00;;;;;;5091040;27;21218;-78
2024/03/05 09:46:42;;;;;;;14.97;13.47;;;17.00;1.00;;;;;;5080061;28;20483;-75
2024/03/05 09:49:10;;;;;;;14.13;12.73;;;17.30;1.00;;;;;;5089144;27;20972;-79
2024/03/05 09:51:40;;;;;;;15.10;13.50;;;17.30;1.00;;;;;;5105567;27;20503;-77
2024/03/05 09:54:10;;;;;;;22.00;15.03;;;17.10;1.00;;;;;;5105811;27;20482;-79
2024/03/05 09:56:42;;;;;;;21.37;13.30;;;16.40;1.00;;;;;;5089254;27;20518;-77
2024/03/05 09:59:16;;;;;;;15.90;13.20;;;15.60;1.00;;;;;;5098554;27;21384;-77
2024/03/05 10:01:45;;;;;;;16.80;14.40;;;15.30;1.00;;;;;;5086654;27;20430;-77
2024/03/05 10:04:15;;;;;;;16.73;14.20;;;14.70;1.00;;;;;;5095743;27;20466;-77
2024/03/05 10:06:44;;;;;;;18.37;13.73;;;14.30;1.00;;;;;;5081349;28;20511;-76
2024/03/05 10:09:12;;;;;;;22.73;15.00;;;13.80;1.00;;;;;;5085425;28;20472;-78
2024/03/05 10:11:40;;;;;;;20.90;14.80;;;13.00;1.00;;;;;;5076553;28;20587;-76
2024/03/05 10:14:07;;;;;;;19.27;14.20;;;12.40;1.00;;;;;;5086052;27;20480;-76
2024/03/05 10:16:35;;;;;;;14.93;13.43;;;12.40;1.00;;;;;;5060643;27;20496;-75
2024/03/05 10:19:13;;;;;;;15.50;13.73;;;12.20;1.00;;;;;;5094370;27;20567;-80
2024/03/05 10:21:40;;;;;;;17.50;14.27;;;11.90;1.00;;;;;;5091454;27;21323;-81
2024/03/05 10:24:09;;;;;;;19.30;14.70;;;11.60;1.00;;;;;;5109092;27;20458;-80
2024/03/05 10:26:37;;;;;;;18.93;14.40;;;11.10;1.00;;;;;;5098446;27;20446;-79
2024/03/05 10:29:08;;;;;;;15.57;13.10;;;10.60;1.00;;;;;;5109365;27;20527;-82
2024/03/05 10:31:46;;;;;;;16.67;13.90;;;10.50;1.00;;;;;;5101019;27;20455;-80
2024/03/05 10:34:18;;;;;;;12.77;11.47;;;11.30;1.00;;;;;;5095940;28;21445;-80
2024/03/05 10:36:47;;;;;;;16.90;12.03;;;11.70;1.00;;;;;;5091459;27;20548;-77
2024/03/05 10:39:14;;;;;;;14.13;12.00;;;12.10;1.00;;;;;;5080289;28;20451;-78
2024/03/05 10:41:42;;;;;;;17.80;11.03;;;12.30;1.00;;;;;;5109368;27;20461;-77
2024/03/05 10:44:10;;;;;;;13.27;11.73;;;12.70;1.00;;;;;;5091374;27;20455;-76
2024/03/05 10:46:40;;;;;;;11.03;9.70;;;12.60;1.00;;;;;;5102889;27;20466;-76
2024/03/05 10:49:13;;;;;;;11.20;9.20;;;12.30;1.00;;;;;;5096539;27;20442;-81
2024/03/05 10:51:44;;;;;;;14.10;9.90;;;11.70;1.00;;;;;;5082061;28;21037;-79
2024/03/05 10:54:13;;;;;;;20.03;12.60;;;11.00;1.00;;;;;;5088647;28;20450;-77
2024/03/05 10:56:42;;;;;;;12.37;10.23;;;10.60;1.00;;;;;;5089237;27;22062;-78
2024/03/05 10:59:34;;;;;;;11.53;9.37;;;10.50;1.00;;;;;;5100131;27;20991;-77
2024/03/05 11:02:02;;;;;;;12.70;9.70;;;10.20;1.00;;;;;;5103968;27;20638;-77
2024/03/05 11:04:34;;;;;;;9.30;8.40;;;10.20;1.00;;;;;;5089902;28;20466;-77
2024/03/05 11:07:06;;;;;;;9.93;8.53;;;10.10;1.00;;;;;;5096997;27;20544;-79
2024/03/05 11:09:38;;;;;;;11.40;8.97;;;9.90;1.00;;;;;;5108812;27;20465;-78
2024/03/05 11:12:09;;;;;;;13.30;10.23;;;9.80;1.00;;;;;;5095700;27;20462;-77
2024/03/05 11:14:37;;;;;;;12.73;9.00;;;9.70;1.00;;;;;;5109863;27;20463;-76
2024/03/05 11:17:17;;;;;;;10.13;8.67;;;9.80;1.00;;;;;;5094023;28;20467;-74
2024/03/05 11:19:45;;;;;;;15.43;9.30;;;9.80;1.00;;;;;;5109409;27;20462;-74
2024/03/05 11:22:26;;;;;;;13.07;9.10;;;10.80;1.00;;;;;;5091822;27;20461;-74
2024/03/05 11:24:57;;;;;;;13.97;9.60;;;12.90;1.00;;;;;;5085663;27;20456;-73
2024/03/05 11:27:25;;;;;;;9.53;8.53;;;14.00;1.00;;;;;;5097563;27;20455;-75
2024/03/05 11:30:01;;;;;;;14.13;9.10;;;13.50;1.00;;;;;;5112028;27;20478;-74
2024/03/05 11:32:28;;;;;;;12.27;8.43;;;12.80;1.00;;;;;;5109689;27;20478;-75
2024/03/05 11:34:55;;;;;;;9.40;7.73;;;12.50;1.00;;;;;;5087227;28;20904;-74
2024/03/05 11:37:24;;;;;;;14.60;8.57;;;12.60;1.00;;;;;;5091232;28;20466;-72
2024/03/05 11:39:51;;;;;;;7.87;6.87;;;14.60;1.00;;;;;;5092552;28;20888;-73
2024/03/05 11:42:20;;;;;;;10.57;8.37;;;15.80;1.00;;;;;;5087979;27;20529;-75
2024/03/05 11:44:53;;;;;;;8.80;7.57;;;15.90;1.00;;;;;;5087277;28;20627;-74
2024/03/05 11:47:22;;;;;;;15.90;8.63;;;17.00;1.00;;;;;;5089215;28;20464;-75
2024/03/05 11:49:52;;;;;;;10.87;8.40;;;19.30;1.00;;;;;;5090451;28;20504;-73
2024/03/05 11:52:20;;;;;;;9.13;8.20;;;20.80;1.00;;;;;;5088162;28;20553;-74
2024/03/05 11:55:05;;;;;;;13.27;9.83;;;19.90;1.00;;;;;;5073318;27;20497;-75
2024/03/05 11:57:41;;;;;;;10.10;8.77;;;18.00;1.00;;;;;;5088423;27;20504;-74
2024/03/05 12:00:17;;;;;;;12.67;8.80;;;16.40;1.00;;;;;;5103251;27;21068;-73
2024/03/05 12:02:45;;;;;;;11.87;9.20;;;15.10;1.00;;;;;;5084941;28;20476;-75
2024/03/05 12:05:15;;;;;;;12.57;9.77;;;14.10;1.00;;;;;;5087319;28;21047;-73
2024/03/05 12:07:42;;;;;;;9.07;7.30;;;13.40;1.00;;;;;;5093758;27;20522;-73
2024/03/05 12:10:11;;;;;;;14.70;8.70;;;13.10;1.00;;;;;;5086501;28;21002;-73
2024/03/05 12:12:38;;;;;;;9.23;7.33;;;12.50;1.00;;;;;;5087478;28;20494;-75
2024/03/05 12:15:06;;;;;;;14.30;8.70;;;12.00;1.00;;;;;;5090637;27;20443;-74
2024/03/05 12:17:34;;;;;;;16.63;9.33;;;11.60;1.00;;;;;;5086994;27;20458;-75
2024/03/05 12:20:07;;;;;;;10.40;8.80;;;11.50;1.00;;;;;;5089347;28;20479;-75
2024/03/05 12:22:37;;;;;;;14.10;8.97;;;11.60;1.00;;;;;;5097984;27;20465;-74
2024/03/05 12:25:07;;;;;;;10.10;7.80;;;12.50;1.00;;;;;;5083168;28;20559;-75
2024/03/05 12:27:38;;;;;;;12.17;7.63;;;15.20;1.00;;;;;;5086432;28;20470;-77
2024/03/05 12:30:07;;;;;;;8.57;7.70;;;18.20;1.00;;;;;;5084709;28;20627;-80
2024/03/05 12:32:36;;;;;;;12.10;8.20;;;20.20;1.00;;;;;;5088378;28;20458;-78
2024/03/05 12:35:05;;;;;;;9.00;7.60;;;20.20;1.00;;;;;;5099665;27;20474;-76
2024/03/05 12:37:35;;;;;;;9.40;8.30;;;18.90;1.00;;;;;;5100926;27;20484;-77
2024/03/05 12:40:07;;;;;;;9.70;8.13;;;17.50;1.00;;;;;;5092077;28;20488;-79
2024/03/05 12:42:37;;;;;;;13.43;9.10;;;16.40;1.00;;;;;;5092668;27;20463;-78
2024/03/05 12:45:05;;;;;;;10.63;9.13;;;15.50;1.00;;;;;;5094046;27;22005;-77
2024/03/05 12:47:35;;;;;;;13.80;8.73;;;15.10;1.00;;;;;;5084934;28;20535;-77
2024/03/05 12:50:04;;;;;;;12.90;9.30;;;14.90;1.00;;;;;;5091290;28;20469;-77
2024/03/05 12:52:32;;;;;;;13.57;9.67;;;14.90;1.00;;;;;;5091684;28;20462;-77
2024/03/05 12:55:01;;;;;;;20.83;10.40;;;15.10;1.00;;;;;;5088027;28;20491;-76
2024/03/05 12:57:29;;;;;;;13.53;9.30;;;16.40;1.00;;;;;;5093154;27;20983;-76